MSC Cordoba — A8OF8 — position and weather

sailwx.info

Track history (hours):
 
Tides and Currents Weather Stations Pressure Air Temp Water Temp Dewpoint Dewpoint Depression Visibility Wind Speed Wind Dir Waves Ship Positions

MSC Cordoba

Last reported at 2014-Sep-02 18:34 UTC. Time now 2014-Sep-02 19:04 UTC.
Position N 54°46' E 013°30'.

Length 274 m; draft 10.9 m.

Type: Ship. MMSI: 636091473.

Date/timePositionNaut miles runAvg speedWind from/ knotsBaromVisibWave heightAir tempDewpointWater temp
2014-Sep-02 18:34N 54°46' E 013°30'1918.6
2014-Sep-02 17:33N 54°42' E 014°01'2218.5
2014-Sep-02 16:22N 54°41' E 014°39'1918.6
2014-Sep-02 15:20N 54°48' E 015°10'1518.5
2014-Sep-02 14:32N 54°54' E 015°34'135 2.7
2014-Aug-31 12:33N 55°08' E 019°28'1717.5
2014-Aug-31 11:33N 54°54' E 019°09'1818.3
2014-Aug-31 10:33N 54°37' E 018°56'1313.3
2014-Aug-31 09:33N 54°32' E 018°35'2 2.2
2014-Aug-31 08:33N 54°33' E 018°31'0 0.0
2014-Aug-31 07:30N 54°33' E 018°31'0 0.0
2014-Aug-31 06:33N 54°33' E 018°31'0 0.0
2014-Aug-31 05:32N 54°33' E 018°31'0 0.0
2014-Aug-31 04:29N 54°33' E 018°31'0 0.0
2014-Aug-31 03:28N 54°33' E 018°31'0 0.0
2014-Aug-31 02:28N 54°33' E 018°31'0 0.0
2014-Aug-31 01:33N 54°33' E 018°31'0 0.0
2014-Aug-31 00:33N 54°33' E 018°31'0 0.0
2014-Aug-30 23:33N 54°33' E 018°31'0 0.0
2014-Aug-30 22:32N 54°33' E 018°31'0 0.0
2014-Aug-30 21:29N 54°33' E 018°31'0 0.0
2014-Aug-30 20:31N 54°33' E 018°31'0 0.0
2014-Aug-30 19:31N 54°33' E 018°31'0 0.0
2014-Aug-30 18:33N 54°33' E 018°31'0 0.0
2014-Aug-30 17:30N 54°33' E 018°31'0 0.0
2014-Aug-30 16:29N 54°33' E 018°31'0 0.0
2014-Aug-30 15:26N 54°33' E 018°31'0 0.0
2014-Aug-30 14:32N 54°33' E 018°31'0 0.0
2014-Aug-30 13:31N 54°33' E 018°31'0 0.0
2014-Aug-30 12:25N 54°33' E 018°31'0 0.0
2014-Aug-30 11:33N 54°33' E 018°31'0 0.0
2014-Aug-30 10:33N 54°33' E 018°31'0 0.0
2014-Aug-30 09:32N 54°33' E 018°31'0 0.0
2014-Aug-30 08:32N 54°33' E 018°31'0 0.0
2014-Aug-30 07:32N 54°33' E 018°31'0 0.0
2014-Aug-30 06:31N 54°33' E 018°31'0 0.0
2014-Aug-30 05:31N 54°33' E 018°31'0 0.0
2014-Aug-30 04:33N 54°33' E 018°31'0 0.0
2014-Aug-30 03:33N 54°33' E 018°31'0 0.0
2014-Aug-30 02:32N 54°33' E 018°31'0 0.0
2014-Aug-30 01:32N 54°33' E 018°31'0 0.0
2014-Aug-30 00:32N 54°33' E 018°31'0 0.0
2014-Aug-29 23:31N 54°33' E 018°31'0 0.0
2014-Aug-29 22:31N 54°33' E 018°31'0 0.0
2014-Aug-29 21:33N 54°33' E 018°31'0 0.0
2014-Aug-29 20:33N 54°33' E 018°31'0 0.0
2014-Aug-29 19:29N 54°33' E 018°31'0 0.0
2014-Aug-29 18:32N 54°33' E 018°31'0 0.0
2014-Aug-29 17:32N 54°33' E 018°31'0 0.0
2014-Aug-29 16:31N 54°33' E 018°31'0 0.0
2014-Aug-29 15:31N 54°33' E 018°31'0 0.0
2014-Aug-29 14:30N 54°33' E 018°31'0 0.0
2014-Aug-29 13:33N 54°33' E 018°31'0 0.0
2014-Aug-29 12:29N 54°33' E 018°31'0 0.0
2014-Aug-29 11:29N 54°33' E 018°31'0 0.0
2014-Aug-29 10:29N 54°33' E 018°31'0 0.0
2014-Aug-29 09:28N 54°33' E 018°31'0 0.0
2014-Aug-29 08:31N 54°33' E 018°31'0 0.0
2014-Aug-29 07:33N 54°33' E 018°31'0 0.0
2014-Aug-29 06:33N 54°33' E 018°31'0 0.0
2014-Aug-29 05:32N 54°33' E 018°31'0 0.0
2014-Aug-29 04:32N 54°33' E 018°31'0 0.0
2014-Aug-29 03:32N 54°33' E 018°31'1 1.2
2014-Aug-29 02:33N 54°32' E 018°33'6 5.9
2014-Aug-29 01:33N 54°32' E 018°43'7 7.4
2014-Aug-29 00:33N 54°37' E 018°53'9 8.7
2014-Aug-28 23:33N 54°45' E 018°58'1515.2
2014-Aug-28 22:33N 54°54' E 018°38'1817.8
2014-Aug-28 21:33N 55°00' E 018°08'1818.5
2014-Aug-28 20:33N 55°03' E 017°37'2018.5
2014-Aug-28 19:29N 55°06' E 017°02'1718.3
2014-Aug-28 18:32N 55°07' E 016°32'1818.5
2014-Aug-28 17:33N 54°59' E 016°04'1919.0
2014-Aug-28 16:32N 54°52' E 015°32'1918.9
2014-Aug-28 15:32N 54°46' E 015°01'1818.3
2014-Aug-28 14:33N 54°37' E 014°34'1817.9
2014-Aug-28 13:33N 54°39' E 014°03'1818.3
2014-Aug-28 12:33N 54°44' E 013°33'1817.7
2014-Aug-28 11:31N 54°47' E 013°02'1414.2
2014-Aug-28 10:31N 54°44' E 012°38'1414.3
2014-Aug-28 09:33N 54°36' E 012°18'1413.8
2014-Aug-28 08:33N 54°25' E 012°05'1717.0
2014-Aug-28 07:33N 54°28' E 011°36'1615.6
2014-Aug-28 06:33N 54°35' E 011°12'1613.5
2014-Aug-28 05:21N 54°41' E 010°46'1114.0
2014-Aug-28 04:33N 54°52' E 010°50'1313.4
2014-Aug-28 03:34N 55°04' E 010°60'2311.3
2014-Aug-28 01:31N 55°27' E 010°56'1414.2
2014-Aug-28 00:33N 55°40' E 010°47'1511.6
2014-Aug-27 23:13N 55°55' E 010°56'912.8
2014-Aug-27 22:33N 56°02' E 011°05'1818.3
2014-Aug-27 21:34N 56°17' E 011°23'1818.4
2014-Aug-27 20:33N 56°33' E 011°39'1717.3
2014-Aug-27 19:33N 56°49' E 011°50'1918.9
2014-Aug-27 18:34N 57°07' E 011°38'1918.9
2014-Aug-27 17:33N 57°25' E 011°26'1818.2
2014-Aug-27 16:33N 57°38' E 011°03'1818.3
2014-Aug-27 15:33N 57°50' E 010°37'1818.4
2014-Aug-27 14:33N 57°47' E 010°02'1918.6
2014-Aug-27 13:33N 57°43' E 009°29'1918.2
2014-Aug-27 12:32N 57°33' E 008°59'1818.4
2014-Aug-27 11:33N 57°21' E 008°34'1818.4
2014-Aug-27 10:33N 57°08' E 008°10'1818.4
2014-Aug-27 09:33N 56°52' E 007°52'1818.0
2014-Aug-27 08:33N 56°35' E 007°41'1818.2
2014-Aug-27 07:33N 56°17' E 007°34'1818.5
2014-Aug-27 06:33N 55°60' E 007°27'1918.7
2014-Aug-27 05:33N 55°41' E 007°20'1918.8
2014-Aug-27 04:34N 55°23' E 007°19'1918.8
2014-Aug-27 03:33N 55°04' E 007°21'2318.8
2014-Aug-27 02:21N 54°41' E 007°24'1518.8
2014-Aug-27 01:33N 54°26' E 007°26'1818.4
2014-Aug-27 00:33N 54°08' E 007°32'2115.1
2014-Aug-26 23:11N 53°52' E 007°54'914.7
2014-Aug-26 22:33N 53°48' E 008°08'1413.8
2014-Aug-26 21:33N 53°39' E 008°25'5 5.1
2014-Aug-26 20:30N 53°35' E 008°32'0 0.0
2014-Aug-26 19:33N 53°35' E 008°32'0 0.0
2014-Aug-26 18:30N 53°35' E 008°32'0 0.0
2014-Aug-26 17:29N 53°35' E 008°32'0 0.0
2014-Aug-26 16:32N 53°35' E 008°32'0 0.2
2014-Aug-26 15:31N 53°35' E 008°32'0 0.0
2014-Aug-26 14:31N 53°35' E 008°32'0 0.2
2014-Aug-26 13:31N 53°35' E 008°32'0 0.0
2014-Aug-26 12:31N 53°35' E 008°32'0 0.0
2014-Aug-26 11:33N 53°35' E 008°32'0 0.0
2014-Aug-26 10:33N 53°35' E 008°32'0 0.0
2014-Aug-26 09:33N 53°35' E 008°32'0 0.0
2014-Aug-26 08:32N 53°35' E 008°32'0 0.0
2014-Aug-26 07:29N 53°35' E 008°32'0 0.0
2014-Aug-26 06:28N 53°35' E 008°32'0 0.0
2014-Aug-26 05:31N 53°35' E 008°32'0 0.0
2014-Aug-26 04:27N 53°35' E 008°32'0 0.0
2014-Aug-26 03:33N 53°35' E 008°32'0 0.0
2014-Aug-26 02:33N 53°35' E 008°32'0 0.0
2014-Aug-26 01:32N 53°35' E 008°32'0 0.0
2014-Aug-26 00:32N 53°35' E 008°32'0 0.0
2014-Aug-25 23:31N 53°35' E 008°32'0 0.0
2014-Aug-25 22:31N 53°35' E 008°32'0 0.0
2014-Aug-25 21:33N 53°35' E 008°32'0 0.0
2014-Aug-25 20:33N 53°35' E 008°32'0 0.2
2014-Aug-25 19:33N 53°35' E 008°32'1010.3
2014-Aug-25 18:34N 53°42' E 008°20'1616.0
2014-Aug-25 17:32N 53°51' E 007°57'1010.6
2014-Aug-25 16:33N 53°53' E 007°40'5011.6
2014-Aug-25 12:15N 53°45' E 006°16'1318.0
2014-Aug-25 11:31N 53°40' E 005°56'1818.3
2014-Aug-25 10:34N 53°34' E 005°28'1818.4
2014-Aug-25 09:34N 53°28' E 004°58'1817.3
2014-Aug-25 08:33N 53°17' E 004°36'5418.2
2014-Aug-25 05:34N 52°32' E 003°45'2017.7
2014-Aug-25 04:24N 52°14' E 003°28'1819.5
2014-Aug-25 03:30N 51°57' E 003°22'1415.0
2014-Aug-25 02:33N 51°43' E 003°16'1414.4
2014-Aug-25 01:33N 51°30' E 003°27'10 9.7
2014-Aug-25 00:34N 51°26' E 003°41'10 9.8
2014-Aug-24 23:33N 51°22' E 003°56'8 7.6
2014-Aug-24 22:33N 51°22' E 004°08'6 5.9
2014-Aug-24 21:33N 51°21' E 004°17'0 0.0
2014-Aug-24 20:33N 51°21' E 004°17'2 2.0
2014-Aug-24 19:34N 51°19' E 004°19'0 0.0
2014-Aug-24 18:30N 51°19' E 004°19'0 0.0
2014-Aug-24 17:32N 51°19' E 004°19'0 0.0
2014-Aug-24 16:31N 51°19' E 004°19'0 0.0
2014-Aug-24 15:31N 51°19' E 004°19'0 0.0
2014-Aug-24 14:28N 51°19' E 004°19'0 0.0
2014-Aug-24 13:33N 51°19' E 004°19'0 0.0
2014-Aug-24 12:33N 51°19' E 004°19'0 0.0
2014-Aug-24 11:32N 51°19' E 004°19'0 0.0
2014-Aug-24 10:32N 51°19' E 004°19'0 0.0
2014-Aug-24 09:31N 51°19' E 004°19'0 0.0
2014-Aug-24 08:28N 51°19' E 004°19'0 0.0
2014-Aug-24 07:33N 51°19' E 004°19'0 0.0
2014-Aug-24 06:33N 51°19' E 004°19'0 0.0
2014-Aug-24 05:30N 51°19' E 004°19'0 0.0
2014-Aug-24 04:32N 51°19' E 004°19'0 0.0
2014-Aug-24 03:29N 51°19' E 004°19'0 0.0
2014-Aug-24 02:29N 51°19' E 004°19'0 0.0
2014-Aug-24 01:31N 51°19' E 004°19'0 0.0
2014-Aug-24 00:31N 51°19' E 004°20'0 0.0
2014-Aug-23 23:30N 51°19' E 004°19'0 0.4
2014-Aug-23 22:33N 51°19' E 004°19'2 1.7
2014-Aug-23 21:34N 51°21' E 004°17'4 4.0
2014-Aug-23 20:33N 51°23' E 004°13'10 9.5
2014-Aug-23 19:33N 51°24' E 003°57'  
Track history (hours):
 
Tides and Currents Weather Stations Pressure Air Temp Water Temp Dewpoint Dewpoint Depression Visibility Wind Speed Wind Dir Waves Ship Positions

MSC Cordoba

Last reported at 2014-Sep-02 18:34 UTC. Time now 2014-Sep-02 19:04 UTC.
Position N 54°46' E 013°30'.

Length 274 m; draft 10.9 m.

Type: Ship. MMSI: 636091473.

Date/timePositionNaut miles runAvg speedWind from/ knotsBaromVisibWave heightAir tempDewpointWater temp
2014-Sep-02 18:34N 54°46' E 013°30'1918.6
2014-Sep-02 17:33N 54°42' E 014°01'2218.5
2014-Sep-02 16:22N 54°41' E 014°39'1918.6
2014-Sep-02 15:20N 54°48' E 015°10'1518.5
2014-Sep-02 14:32N 54°54' E 015°34'135 2.7
2014-Aug-31 12:33N 55°08' E 019°28'1717.5
2014-Aug-31 11:33N 54°54' E 019°09'1818.3
2014-Aug-31 10:33N 54°37' E 018°56'1313.3
2014-Aug-31 09:33N 54°32' E 018°35'2 2.2
2014-Aug-31 08:33N 54°33' E 018°31'0 0.0
2014-Aug-31 07:30N 54°33' E 018°31'0 0.0
2014-Aug-31 06:33N 54°33' E 018°31'0 0.0
2014-Aug-31 05:32N 54°33' E 018°31'0 0.0
2014-Aug-31 04:29N 54°33' E 018°31'0 0.0
2014-Aug-31 03:28N 54°33' E 018°31'0 0.0
2014-Aug-31 02:28N 54°33' E 018°31'0 0.0
2014-Aug-31 01:33N 54°33' E 018°31'0 0.0
2014-Aug-31 00:33N 54°33' E 018°31'0 0.0
2014-Aug-30 23:33N 54°33' E 018°31'0 0.0
2014-Aug-30 22:32N 54°33' E 018°31'0 0.0
2014-Aug-30 21:29N 54°33' E 018°31'0 0.0
2014-Aug-30 20:31N 54°33' E 018°31'0 0.0
2014-Aug-30 19:31N 54°33' E 018°31'0 0.0
2014-Aug-30 18:33N 54°33' E 018°31'0 0.0
2014-Aug-30 17:30N 54°33' E 018°31'0 0.0
2014-Aug-30 16:29N 54°33' E 018°31'0 0.0
2014-Aug-30 15:26N 54°33' E 018°31'0 0.0
2014-Aug-30 14:32N 54°33' E 018°31'0 0.0
2014-Aug-30 13:31N 54°33' E 018°31'0 0.0
2014-Aug-30 12:25N 54°33' E 018°31'0 0.0
2014-Aug-30 11:33N 54°33' E 018°31'0 0.0
2014-Aug-30 10:33N 54°33' E 018°31'0 0.0
2014-Aug-30 09:32N 54°33' E 018°31'0 0.0
2014-Aug-30 08:32N 54°33' E 018°31'0 0.0
2014-Aug-30 07:32N 54°33' E 018°31'0 0.0
2014-Aug-30 06:31N 54°33' E 018°31'0 0.0
2014-Aug-30 05:31N 54°33' E 018°31'0 0.0
2014-Aug-30 04:33N 54°33' E 018°31'0 0.0
2014-Aug-30 03:33N 54°33' E 018°31'0 0.0
2014-Aug-30 02:32N 54°33' E 018°31'0 0.0
2014-Aug-30 01:32N 54°33' E 018°31'0 0.0
2014-Aug-30 00:32N 54°33' E 018°31'0 0.0
2014-Aug-29 23:31N 54°33' E 018°31'0 0.0
2014-Aug-29 22:31N 54°33' E 018°31'0 0.0
2014-Aug-29 21:33N 54°33' E 018°31'0 0.0
2014-Aug-29 20:33N 54°33' E 018°31'0 0.0
2014-Aug-29 19:29N 54°33' E 018°31'0 0.0
2014-Aug-29 18:32N 54°33' E 018°31'0 0.0
2014-Aug-29 17:32N 54°33' E 018°31'0 0.0
2014-Aug-29 16:31N 54°33' E 018°31'0 0.0
2014-Aug-29 15:31N 54°33' E 018°31'0 0.0
2014-Aug-29 14:30N 54°33' E 018°31'0 0.0
2014-Aug-29 13:33N 54°33' E 018°31'0 0.0
2014-Aug-29 12:29N 54°33' E 018°31'0 0.0
2014-Aug-29 11:29N 54°33' E 018°31'0 0.0
2014-Aug-29 10:29N 54°33' E 018°31'0 0.0
2014-Aug-29 09:28N 54°33' E 018°31'0 0.0
2014-Aug-29 08:31N 54°33' E 018°31'0 0.0
2014-Aug-29 07:33N 54°33' E 018°31'0 0.0
2014-Aug-29 06:33N 54°33' E 018°31'0 0.0
2014-Aug-29 05:32N 54°33' E 018°31'0 0.0
2014-Aug-29 04:32N 54°33' E 018°31'0 0.0
2014-Aug-29 03:32N 54°33' E 018°31'1 1.2
2014-Aug-29 02:33N 54°32' E 018°33'6 5.9
2014-Aug-29 01:33N 54°32' E 018°43'7 7.4
2014-Aug-29 00:33N 54°37' E 018°53'9 8.7
2014-Aug-28 23:33N 54°45' E 018°58'1515.2
2014-Aug-28 22:33N 54°54' E 018°38'1817.8
2014-Aug-28 21:33N 55°00' E 018°08'1818.5
2014-Aug-28 20:33N 55°03' E 017°37'2018.5
2014-Aug-28 19:29N 55°06' E 017°02'1718.3
2014-Aug-28 18:32N 55°07' E 016°32'1818.5
2014-Aug-28 17:33N 54°59' E 016°04'1919.0
2014-Aug-28 16:32N 54°52' E 015°32'1918.9
2014-Aug-28 15:32N 54°46' E 015°01'1818.3
2014-Aug-28 14:33N 54°37' E 014°34'1817.9
2014-Aug-28 13:33N 54°39' E 014°03'1818.3
2014-Aug-28 12:33N 54°44' E 013°33'1817.7
2014-Aug-28 11:31N 54°47' E 013°02'1414.2
2014-Aug-28 10:31N 54°44' E 012°38'1414.3
2014-Aug-28 09:33N 54°36' E 012°18'1413.8
2014-Aug-28 08:33N 54°25' E 012°05'1717.0
2014-Aug-28 07:33N 54°28' E 011°36'1615.6
2014-Aug-28 06:33N 54°35' E 011°12'1613.5
2014-Aug-28 05:21N 54°41' E 010°46'1114.0
2014-Aug-28 04:33N 54°52' E 010°50'1313.4
2014-Aug-28 03:34N 55°04' E 010°60'2311.3
2014-Aug-28 01:31N 55°27' E 010°56'1414.2
2014-Aug-28 00:33N 55°40' E 010°47'1511.6
2014-Aug-27 23:13N 55°55' E 010°56'912.8
2014-Aug-27 22:33N 56°02' E 011°05'1818.3
2014-Aug-27 21:34N 56°17' E 011°23'1818.4
2014-Aug-27 20:33N 56°33' E 011°39'1717.3
2014-Aug-27 19:33N 56°49' E 011°50'1918.9
2014-Aug-27 18:34N 57°07' E 011°38'1918.9
2014-Aug-27 17:33N 57°25' E 011°26'1818.2
2014-Aug-27 16:33N 57°38' E 011°03'1818.3
2014-Aug-27 15:33N 57°50' E 010°37'1818.4
2014-Aug-27 14:33N 57°47' E 010°02'1918.6
2014-Aug-27 13:33N 57°43' E 009°29'1918.2
2014-Aug-27 12:32N 57°33' E 008°59'1818.4
2014-Aug-27 11:33N 57°21' E 008°34'1818.4
2014-Aug-27 10:33N 57°08' E 008°10'1818.4
2014-Aug-27 09:33N 56°52' E 007°52'1818.0
2014-Aug-27 08:33N 56°35' E 007°41'1818.2
2014-Aug-27 07:33N 56°17' E 007°34'1818.5
2014-Aug-27 06:33N 55°60' E 007°27'1918.7
2014-Aug-27 05:33N 55°41' E 007°20'1918.8
2014-Aug-27 04:34N 55°23' E 007°19'1918.8
2014-Aug-27 03:33N 55°04' E 007°21'2318.8
2014-Aug-27 02:21N 54°41' E 007°24'1518.8
2014-Aug-27 01:33N 54°26' E 007°26'1818.4
2014-Aug-27 00:33N 54°08' E 007°32'2115.1
2014-Aug-26 23:11N 53°52' E 007°54'914.7
2014-Aug-26 22:33N 53°48' E 008°08'1413.8
2014-Aug-26 21:33N 53°39' E 008°25'5 5.1
2014-Aug-26 20:30N 53°35' E 008°32'0 0.0
2014-Aug-26 19:33N 53°35' E 008°32'0 0.0
2014-Aug-26 18:30N 53°35' E 008°32'0 0.0
2014-Aug-26 17:29N 53°35' E 008°32'0 0.0
2014-Aug-26 16:32N 53°35' E 008°32'0 0.2
2014-Aug-26 15:31N 53°35' E 008°32'0 0.0
2014-Aug-26 14:31N 53°35' E 008°32'0 0.2
2014-Aug-26 13:31N 53°35' E 008°32'0 0.0
2014-Aug-26 12:31N 53°35' E 008°32'0 0.0
2014-Aug-26 11:33N 53°35' E 008°32'0 0.0
2014-Aug-26 10:33N 53°35' E 008°32'0 0.0
2014-Aug-26 09:33N 53°35' E 008°32'0 0.0
2014-Aug-26 08:32N 53°35' E 008°32'0 0.0
2014-Aug-26 07:29N 53°35' E 008°32'0 0.0
2014-Aug-26 06:28N 53°35' E 008°32'0 0.0
2014-Aug-26 05:31N 53°35' E 008°32'0 0.0
2014-Aug-26 04:27N 53°35' E 008°32'0 0.0
2014-Aug-26 03:33N 53°35' E 008°32'0 0.0
2014-Aug-26 02:33N 53°35' E 008°32'0 0.0
2014-Aug-26 01:32N 53°35' E 008°32'0 0.0
2014-Aug-26 00:32N 53°35' E 008°32'0 0.0
2014-Aug-25 23:31N 53°35' E 008°32'0 0.0
2014-Aug-25 22:31N 53°35' E 008°32'0 0.0
2014-Aug-25 21:33N 53°35' E 008°32'0 0.0
2014-Aug-25 20:33N 53°35' E 008°32'0 0.2
2014-Aug-25 19:33N 53°35' E 008°32'1010.3
2014-Aug-25 18:34N 53°42' E 008°20'1616.0
2014-Aug-25 17:32N 53°51' E 007°57'1010.6
2014-Aug-25 16:33N 53°53' E 007°40'5011.6
2014-Aug-25 12:15N 53°45' E 006°16'1318.0
2014-Aug-25 11:31N 53°40' E 005°56'1818.3
2014-Aug-25 10:34N 53°34' E 005°28'1818.4
2014-Aug-25 09:34N 53°28' E 004°58'1817.3
2014-Aug-25 08:33N 53°17' E 004°36'5418.2
2014-Aug-25 05:34N 52°32' E 003°45'2017.7
2014-Aug-25 04:24N 52°14' E 003°28'1819.5
2014-Aug-25 03:30N 51°57' E 003°22'1415.0
2014-Aug-25 02:33N 51°43' E 003°16'1414.4
2014-Aug-25 01:33N 51°30' E 003°27'10 9.7
2014-Aug-25 00:34N 51°26' E 003°41'10 9.8
2014-Aug-24 23:33N 51°22' E 003°56'8 7.6
2014-Aug-24 22:33N 51°22' E 004°08'6 5.9
2014-Aug-24 21:33N 51°21' E 004°17'0 0.0
2014-Aug-24 20:33N 51°21' E 004°17'2 2.0
2014-Aug-24 19:34N 51°19' E 004°19'0 0.0
2014-Aug-24 18:30N 51°19' E 004°19'0 0.0
2014-Aug-24 17:32N 51°19' E 004°19'0 0.0
2014-Aug-24 16:31N 51°19' E 004°19'0 0.0
2014-Aug-24 15:31N 51°19' E 004°19'0 0.0
2014-Aug-24 14:28N 51°19' E 004°19'0 0.0
2014-Aug-24 13:33N 51°19' E 004°19'0 0.0
2014-Aug-24 12:33N 51°19' E 004°19'0 0.0
2014-Aug-24 11:32N 51°19' E 004°19'0 0.0
2014-Aug-24 10:32N 51°19' E 004°19'0 0.0
2014-Aug-24 09:31N 51°19' E 004°19'0 0.0
2014-Aug-24 08:28N 51°19' E 004°19'0 0.0
2014-Aug-24 07:33N 51°19' E 004°19'0 0.0
2014-Aug-24 06:33N 51°19' E 004°19'0 0.0
2014-Aug-24 05:30N 51°19' E 004°19'0 0.0
2014-Aug-24 04:32N 51°19' E 004°19'0 0.0
2014-Aug-24 03:29N 51°19' E 004°19'0 0.0
2014-Aug-24 02:29N 51°19' E 004°19'0 0.0
2014-Aug-24 01:31N 51°19' E 004°19'0 0.0
2014-Aug-24 00:31N 51°19' E 004°20'0 0.0
2014-Aug-23 23:30N 51°19' E 004°19'0 0.4
2014-Aug-23 22:33N 51°19' E 004°19'2 1.7
2014-Aug-23 21:34N 51°21' E 004°17'4 4.0
2014-Aug-23 20:33N 51°23' E 004°13'10 9.5
2014-Aug-23 19:33N 51°24' E 003°57'  

Dump ship's entire track history